sensor_id;sensor_type;location;lat;lon;timestamp;pressure;altitude;pressure_sealevel;temperature;humidity
86111;BME280;76766;52.874;11.218;2024-03-17T00:00:22;102093.06;;;18.79;55.99
86111;BME280;76766;52.874;11.218;2024-03-17T00:02:48;102103.03;;;18.78;55.92
86111;BME280;76766;52.874;11.218;2024-03-17T00:05:14;102104.91;;;18.78;56.08
86111;BME280;76766;52.874;11.218;2024-03-17T00:07:40;102106.13;;;18.75;56.15
86111;BME280;76766;52.874;11.218;2024-03-17T00:10:05;102100.91;;;18.74;56.51
86111;BME280;76766;52.874;11.218;2024-03-17T00:12:35;102120.03;;;18.72;56.70
86111;BME280;76766;52.874;11.218;2024-03-17T00:15:01;102112.94;;;18.71;56.63
86111;BME280;76766;52.874;11.218;2024-03-17T00:17:26;102120.44;;;18.69;56.67
86111;BME280;76766;52.874;11.218;2024-03-17T00:19:51;102115.25;;;18.68;56.67
86111;BME280;76766;52.874;11.218;2024-03-17T00:22:17;102117.09;;;18.67;57.00
86111;BME280;76766;52.874;11.218;2024-03-17T00:24:43;102127.09;;;18.67;57.04
86111;BME280;76766;52.874;11.218;2024-03-17T00:27:08;102123.75;;;18.65;57.23
86111;BME280;76766;52.874;11.218;2024-03-17T00:29:34;102130.19;;;18.64;56.96
86111;BME280;76766;52.874;11.218;2024-03-17T00:32:00;102127.69;;;18.62;57.31
86111;BME280;76766;52.874;11.218;2024-03-17T00:34:25;102127.84;;;18.61;57.47
86111;BME280;76766;52.874;11.218;2024-03-17T00:36:50;102121.59;;;18.60;57.33
86111;BME280;76766;52.874;11.218;2024-03-17T00:39:17;102124.31;;;18.60;57.44
86111;BME280;76766;52.874;11.218;2024-03-17T00:41:43;102121.81;;;18.59;57.77
86111;BME280;76766;52.874;11.218;2024-03-17T00:44:08;102122.84;;;18.58;57.78
86111;BME280;76766;52.874;11.218;2024-03-17T00:46:34;102125.75;;;18.56;57.59
86111;BME280;76766;52.874;11.218;2024-03-17T00:48:59;102125.75;;;18.56;57.84
86111;BME280;76766;52.874;11.218;2024-03-17T00:51:28;102130.50;;;18.54;58.01
86111;BME280;76766;52.874;11.218;2024-03-17T00:53:53;102123.44;;;18.53;58.02
86111;BME280;76766;52.874;11.218;2024-03-17T00:56:21;102126.31;;;18.52;57.91
86111;BME280;76766;52.874;11.218;2024-03-17T00:58:47;102136.13;;;18.53;58.04
86111;BME280;76766;52.874;11.218;2024-03-17T01:01:12;102137.34;;;18.50;58.09
86111;BME280;76766;52.874;11.218;2024-03-17T01:03:38;102136.69;;;18.48;58.20
86111;BME280;76766;52.874;11.218;2024-03-17T01:06:04;102138.53;;;18.48;58.28
86111;BME280;76766;52.874;11.218;2024-03-17T01:08:30;102131.44;;;18.47;58.17
86111;BME280;76766;52.874;11.218;2024-03-17T01:10:55;102137.88;;;18.46;58.20
86111;BME280;76766;52.874;11.218;2024-03-17T01:13:20;102132.69;;;18.44;58.31
86111;BME280;76766;52.874;11.218;2024-03-17T01:15:51;102143.50;;;18.44;58.68
86111;BME280;76766;52.874;11.218;2024-03-17T01:18:17;102137.44;;;18.42;58.53
86111;BME280;76766;52.874;11.218;2024-03-17T01:20:42;102134.75;;;18.42;58.46
86111;BME280;76766;52.874;11.218;2024-03-17T01:23:08;102137.63;;;18.41;58.64
86111;BME280;76766;52.874;11.218;2024-03-17T01:25:33;102123.47;;;18.39;58.70
86111;BME280;76766;52.874;11.218;2024-03-17T01:28:05;102127.19;;;18.38;58.54
86111;BME280;76766;52.874;11.218;2024-03-17T01:30:30;102139.03;;;18.37;58.72
86111;BME280;76766;52.874;11.218;2024-03-17T01:32:57;102131.75;;;18.37;58.71
86111;BME280;76766;52.874;11.218;2024-03-17T01:35:25;102133.63;;;18.37;58.77
86111;BME280;76766;52.874;11.218;2024-03-17T01:37:50;102139.25;;;18.35;58.83
86111;BME280;76766;52.874;11.218;2024-03-17T01:40:15;102135.69;;;18.35;58.96
86111;BME280;76766;52.874;11.218;2024-03-17T01:42:41;102149.22;;;18.35;59.02
86111;BME280;76766;52.874;11.218;2024-03-17T01:45:30;102148.59;;;18.33;59.18
86111;BME280;76766;52.874;11.218;2024-03-17T01:48:00;102147.09;;;18.30;59.24
86111;BME280;76766;52.874;11.218;2024-03-17T01:50:33;102142.72;;;18.29;59.14
86111;BME280;76766;52.874;11.218;2024-03-17T01:53:02;102145.41;;;18.29;59.22
86111;BME280;76766;52.874;11.218;2024-03-17T01:55:30;102141.88;;;18.29;59.12
86111;BME280;76766;52.874;11.218;2024-03-17T01:57:56;102133.75;;;18.29;59.17
86111;BME280;76766;52.874;11.218;2024-03-17T02:00:21;102142.94;;;18.28;59.34
86111;BME280;76766;52.874;11.218;2024-03-17T02:02:48;102136.84;;;18.26;59.47
86111;BME280;76766;52.874;11.218;2024-03-17T02:05:13;102135.19;;;18.25;59.42
86111;BME280;76766;52.874;11.218;2024-03-17T02:07:39;102146.00;;;18.25;59.35
86111;BME280;76766;52.874;11.218;2024-03-17T02:10:06;102145.16;;;18.24;59.48
86111;BME280;76766;52.874;11.218;2024-03-17T02:12:33;102148.03;;;18.22;59.34
86111;BME280;76766;52.874;11.218;2024-03-17T02:15:00;102143.69;;;18.21;59.35
86111;BME280;76766;52.874;11.218;2024-03-17T02:17:25;102152.81;;;18.20;59.38
86111;BME280;76766;52.874;11.218;2024-03-17T02:19:52;102140.31;;;18.19;59.65
86111;BME280;76766;52.874;11.218;2024-03-17T02:22:17;102140.31;;;18.19;59.58
86111;BME280;76766;52.874;11.218;2024-03-17T02:24:44;102148.63;;;18.18;59.46
86111;BME280;76766;52.874;11.218;2024-03-17T02:27:09;102137.81;;;18.18;59.58
86111;BME280;76766;52.874;11.218;2024-03-17T02:29:35;102142.38;;;18.17;59.60
86111;BME280;76766;52.874;11.218;2024-03-17T02:32:08;102139.91;;;18.16;59.73
86111;BME280;76766;52.874;11.218;2024-03-17T02:34:34;102136.34;;;18.15;59.50
86111;BME280;76766;52.874;11.218;2024-03-17T02:37:03;102132.81;;;18.15;59.72
86111;BME280;76766;52.874;11.218;2024-03-17T02:39:30;102140.91;;;18.15;59.63
86111;BME280;76766;52.874;11.218;2024-03-17T02:42:06;102136.72;;;18.12;59.56
86111;BME280;76766;52.874;11.218;2024-03-17T02:44:32;102133.19;;;18.12;59.82
86111;BME280;76766;52.874;11.218;2024-03-17T02:46:58;102135.88;;;18.12;59.84
86111;BME280;76766;52.874;11.218;2024-03-17T02:49:28;102138.78;;;18.10;59.65
86111;BME280;76766;52.874;11.218;2024-03-17T02:51:56;102145.44;;;18.08;59.88
86111;BME280;76766;52.874;11.218;2024-03-17T02:54:22;102144.38;;;18.09;60.01
86111;BME280;76766;52.874;11.218;2024-03-17T02:56:48;102148.13;;;18.08;59.85
86111;BME280;76766;52.874;11.218;2024-03-17T02:59:14;102144.59;;;18.07;59.94
86111;BME280;76766;52.874;11.218;2024-03-17T03:01:39;102143.91;;;18.05;59.85
86111;BME280;76766;52.874;11.218;2024-03-17T03:04:05;102150.16;;;18.06;59.85
86111;BME280;76766;52.874;11.218;2024-03-17T03:06:32;102145.97;;;18.03;59.94
86111;BME280;76766;52.874;11.218;2024-03-17T03:08:58;102139.72;;;18.03;59.78
86111;BME280;76766;52.874;11.218;2024-03-17T03:11:23;102150.38;;;18.04;59.91
86111;BME280;76766;52.874;11.218;2024-03-17T03:13:48;102148.69;;;18.03;60.00
86111;BME280;76766;52.874;11.218;2024-03-17T03:16:14;102143.47;;;18.02;59.99
86111;BME280;76766;52.874;11.218;2024-03-17T03:18:40;102145.13;;;18.03;59.91
86111;BME280;76766;52.874;11.218;2024-03-17T03:21:06;102145.34;;;18.01;60.01
86111;BME280;76766;52.874;11.218;2024-03-17T03:23:32;102152.59;;;18.01;60.09
86111;BME280;76766;52.874;11.218;2024-03-17T03:26:00;102148.22;;;18.00;60.02
86111;BME280;76766;52.874;11.218;2024-03-17T03:28:27;102156.31;;;18.00;60.04
86111;BME280;76766;52.874;11.218;2024-03-17T03:30:53;102155.69;;;17.98;60.07
86111;BME280;76766;52.874;11.218;2024-03-17T03:33:19;102152.13;;;17.97;60.08
86111;BME280;76766;52.874;11.218;2024-03-17T03:35:45;102151.28;;;17.97;60.24
86111;BME280;76766;52.874;11.218;2024-03-17T03:38:11;102154.00;;;17.97;60.19
86111;BME280;76766;52.874;11.218;2024-03-17T03:40:36;102151.50;;;17.95;59.94
86111;BME280;76766;52.874;11.218;2024-03-17T03:43:02;102155.44;;;17.93;60.28
86111;BME280;76766;52.874;11.218;2024-03-17T03:45:27;102154.59;;;17.92;60.14
86111;BME280;76766;52.874;11.218;2024-03-17T03:47:53;102152.72;;;17.93;60.19
86111;BME280;76766;52.874;11.218;2024-03-17T03:50:21;102156.66;;;17.90;60.18
86111;BME280;76766;52.874;11.218;2024-03-17T03:52:47;102153.75;;;17.92;60.18
86111;BME280;76766;52.874;11.218;2024-03-17T03:55:12;102154.75;;;17.91;60.24
86111;BME280;76766;52.874;11.218;2024-03-17T03:57:44;102155.97;;;17.88;60.18
86111;BME280;76766;52.874;11.218;2024-03-17T04:00:21;102157.03;;;17.87;60.13
86111;BME280;76766;52.874;11.218;2024-03-17T04:02:49;102157.88;;;17.88;60.41
86111;BME280;76766;52.874;11.218;2024-03-17T04:05:18;102154.50;;;17.86;60.20
86111;BME280;76766;52.874;11.218;2024-03-17T04:07:44;102147.44;;;17.85;60.38
86111;BME280;76766;52.874;11.218;2024-03-17T04:10:12;102159.25;;;17.84;60.38
86111;BME280;76766;52.874;11.218;2024-03-17T04:12:37;102159.91;;;17.86;60.30
86111;BME280;76766;52.874;11.218;2024-03-17T04:15:03;102155.53;;;17.85;60.48
86111;BME280;76766;52.874;11.218;2024-03-17T04:17:31;102161.13;;;17.83;60.42
86111;BME280;76766;52.874;11.218;2024-03-17T04:19:58;102163.81;;;17.83;60.20
86111;BME280;76766;52.874;11.218;2024-03-17T04:22:23;102161.31;;;17.82;60.45
86111;BME280;76766;52.874;11.218;2024-03-17T04:24:49;102152.16;;;17.83;60.41
86111;BME280;76766;52.874;11.218;2024-03-17T04:27:24;102158.63;;;17.82;60.27
86111;BME280;76766;52.874;11.218;2024-03-17T04:29:51;102155.25;;;17.80;60.44
86111;BME280;76766;52.874;11.218;2024-03-17T04:32:17;102150.91;;;17.79;60.56
86111;BME280;76766;52.874;11.218;2024-03-17T04:34:42;102161.69;;;17.79;60.42
86111;BME280;76766;52.874;11.218;2024-03-17T04:37:11;102159.00;;;17.79;60.46
86111;BME280;76766;52.874;11.218;2024-03-17T04:39:40;102158.16;;;17.78;60.48
86111;BME280;76766;52.874;11.218;2024-03-17T04:42:11;102165.41;;;17.78;60.49
86111;BME280;76766;52.874;11.218;2024-03-17T04:44:37;102161.69;;;17.79;60.41
86111;BME280;76766;52.874;11.218;2024-03-17T04:47:03;102165.63;;;17.76;60.36
86111;BME280;76766;52.874;11.218;2024-03-17T04:49:43;102161.22;;;17.75;60.41
86111;BME280;76766;52.874;11.218;2024-03-17T04:52:12;102161.41;;;17.74;60.59
86111;BME280;76766;52.874;11.218;2024-03-17T04:54:38;102160.59;;;17.73;60.49
86111;BME280;76766;52.874;11.218;2024-03-17T04:57:03;102161.41;;;17.74;60.47
86111;BME280;76766;52.874;11.218;2024-03-17T04:59:29;102165.78;;;17.75;60.57
86111;BME280;76766;52.874;11.218;2024-03-17T05:01:55;102172.22;;;17.74;60.54
86111;BME280;76766;52.874;11.218;2024-03-17T05:04:20;102167.84;;;17.73;60.49
86111;BME280;76766;52.874;11.218;2024-03-17T05:06:46;102173.44;;;17.71;60.51
86111;BME280;76766;52.874;11.218;2024-03-17T05:09:17;102169.91;;;17.71;60.56
86111;BME280;76766;52.874;11.218;2024-03-17T05:11:43;102170.94;;;17.70;60.62
86111;BME280;76766;52.874;11.218;2024-03-17T05:14:09;102174.47;;;17.70;60.48
86111;BME280;76766;52.874;11.218;2024-03-17T05:16:34;102181.72;;;17.70;60.41
86111;BME280;76766;52.874;11.218;2024-03-17T05:19:00;102187.13;;;17.70;60.53
86111;BME280;76766;52.874;11.218;2024-03-17T05:21:25;102187.31;;;17.68;60.59
86111;BME280;76766;52.874;11.218;2024-03-17T05:23:52;102192.53;;;17.70;60.62
86111;BME280;76766;52.874;11.218;2024-03-17T05:26:17;102193.56;;;17.69;60.46
86111;BME280;76766;52.874;11.218;2024-03-17T05:28:43;102192.53;;;17.70;60.46
86111;BME280;76766;52.874;11.218;2024-03-17T05:31:09;102196.25;;;17.69;60.63
86111;BME280;76766;52.874;11.218;2024-03-17T05:33:34;102204.19;;;17.70;60.48
86111;BME280;76766;52.874;11.218;2024-03-17T05:36:02;102201.66;;;17.69;60.40
86111;BME280;76766;52.874;11.218;2024-03-17T05:38:28;102195.25;;;17.70;60.52
86111;BME280;76766;52.874;11.218;2024-03-17T05:43:21;102199.22;;;17.74;60.32
86111;BME280;76766;52.874;11.218;2024-03-17T05:45:46;102201.75;;;17.75;60.16
86111;BME280;76766;52.874;11.218;2024-03-17T05:48:12;102204.25;;;17.77;60.14
86111;BME280;76766;52.874;11.218;2024-03-17T05:50:37;102208.63;;;17.78;60.17
86111;BME280;76766;52.874;11.218;2024-03-17T05:53:04;102207.25;;;17.82;60.17
86111;BME280;76766;52.874;11.218;2024-03-17T05:55:30;102207.88;;;17.84;59.78
86111;BME280;76766;52.874;11.218;2024-03-17T05:57:55;102212.28;;;17.85;59.91
86111;BME280;76766;52.874;11.218;2024-03-17T06:00:21;102207.50;;;17.87;59.71
86111;BME280;76766;52.874;11.218;2024-03-17T06:02:46;102209.00;;;17.89;59.81
86111;BME280;76766;52.874;11.218;2024-03-17T06:05:12;102216.09;;;17.90;59.80
86111;BME280;76766;52.874;11.218;2024-03-17T06:07:39;102221.50;;;17.90;59.74
86111;BME280;76766;52.874;11.218;2024-03-17T06:10:06;102225.69;;;17.93;59.78
86111;BME280;76766;52.874;11.218;2024-03-17T06:12:31;102216.91;;;17.91;59.58
86111;BME280;76766;52.874;11.218;2024-03-17T06:14:57;102227.34;;;17.94;59.74
86111;BME280;76766;52.874;11.218;2024-03-17T06:17:22;102230.34;;;17.99;59.55
86111;BME280;76766;52.874;11.218;2024-03-17T06:19:47;102233.84;;;17.99;59.55
86111;BME280;76766;52.874;11.218;2024-03-17T06:22:13;102235.38;;;18.02;59.42
86111;BME280;76766;52.874;11.218;2024-03-17T06:24:38;102232.47;;;18.03;59.34
86111;BME280;76766;52.874;11.218;2024-03-17T06:27:04;102238.50;;;18.05;59.35
86111;BME280;76766;52.874;11.218;2024-03-17T06:29:32;102245.41;;;18.08;59.32
86111;BME280;76766;52.874;11.218;2024-03-17T06:31:58;102245.41;;;18.08;59.12
86111;BME280;76766;52.874;11.218;2024-03-17T06:34:23;102250.81;;;18.08;59.27
86111;BME280;76766;52.874;11.218;2024-03-17T06:36:48;102251.47;;;18.10;59.38
86111;BME280;76766;52.874;11.218;2024-03-17T06:39:14;102259.38;;;18.11;59.05
86111;BME280;76766;52.874;11.218;2024-03-17T06:41:42;102259.19;;;18.13;59.10
86111;BME280;76766;52.874;11.218;2024-03-17T06:44:07;102253.78;;;18.13;59.02
86111;BME280;76766;52.874;11.218;2024-03-17T06:46:33;102256.50;;;18.13;59.02
86111;BME280;76766;52.874;11.218;2024-03-17T06:48:58;102259.00;;;18.14;58.93
86111;BME280;76766;52.874;11.218;2024-03-17T06:51:25;102267.94;;;18.15;59.12
86111;BME280;76766;52.874;11.218;2024-03-17T06:53:50;102270.28;;;18.18;59.14
86111;BME280;76766;52.874;11.218;2024-03-17T06:56:15;102275.47;;;18.19;58.86
86111;BME280;76766;52.874;11.218;2024-03-17T06:58:41;102270.75;;;18.21;58.88
86111;BME280;76766;52.874;11.218;2024-03-17T07:01:06;102274.28;;;18.22;58.74
86111;BME280;76766;52.874;11.218;2024-03-17T07:03:32;102278.47;;;18.25;58.67
86111;BME280;76766;52.874;11.218;2024-03-17T07:06:01;102288.44;;;18.24;58.66
86111;BME280;76766;52.874;11.218;2024-03-17T07:08:28;102278.25;;;18.26;58.71
86111;BME280;76766;52.874;11.218;2024-03-17T07:11:05;102279.97;;;18.27;58.69
86111;BME280;76766;52.874;11.218;2024-03-17T07:13:37;102276.19;;;18.28;58.71
86111;BME280;76766;52.874;11.218;2024-03-17T07:16:04;102286.84;;;18.30;58.56
86111;BME280;76766;52.874;11.218;2024-03-17T07:18:34;102283.94;;;18.31;58.69
86111;BME280;76766;52.874;11.218;2024-03-17T07:21:01;102283.94;;;18.31;58.67
86111;BME280;76766;52.874;11.218;2024-03-17T07:23:29;102278.16;;;18.34;58.52
86111;BME280;76766;52.874;11.218;2024-03-17T07:25:56;102280.47;;;18.37;58.43
86111;BME280;76766;52.874;11.218;2024-03-17T07:28:23;102280.78;;;18.42;58.43
86111;BME280;76766;52.874;11.218;2024-03-17T07:30:49;102280.84;;;18.49;58.21
86111;BME280;76766;52.874;11.218;2024-03-17T07:33:15;102277.59;;;18.53;57.88
86111;BME280;76766;52.874;11.218;2024-03-17T07:38:12;102279.53;;;18.59;57.96
86111;BME280;76766;52.874;11.218;2024-03-17T07:40:38;102294.81;;;18.67;57.62
86111;BME280;76766;52.874;11.218;2024-03-17T07:43:03;102290.28;;;18.74;57.53
86111;BME280;76766;52.874;11.218;2024-03-17T07:45:29;102286.41;;;18.83;57.21
86111;BME280;76766;52.874;11.218;2024-03-17T07:47:54;102280.69;;;18.93;57.14
86111;BME280;76766;52.874;11.218;2024-03-17T07:50:19;102285.19;;;19.07;56.56
86111;BME280;76766;52.874;11.218;2024-03-17T07:52:45;102287.91;;;19.28;55.97
86111;BME280;76766;52.874;11.218;2024-03-17T07:55:10;102281.09;;;19.60;55.21
86111;BME280;76766;52.874;11.218;2024-03-17T07:57:36;102283.63;;;20.02;54.35
86111;BME280;76766;52.874;11.218;2024-03-17T08:00:02;102284.03;;;20.40;53.24
86111;BME280;76766;52.874;11.218;2024-03-17T08:02:27;102293.09;;;20.73;52.35
86111;BME280;76766;52.874;11.218;2024-03-17T08:04:54;102291.22;;;21.07;51.74
86111;BME280;76766;52.874;11.218;2024-03-17T08:07:19;102290.44;;;21.39;51.07
86111;BME280;76766;52.874;11.218;2024-03-17T08:09:44;102283.91;;;21.79;50.39
86111;BME280;76766;52.874;11.218;2024-03-17T08:12:10;102273.56;;;22.21;48.43
86111;BME280;76766;52.874;11.218;2024-03-17T08:14:35;102281.50;;;22.60;48.10
86111;BME280;76766;52.874;11.218;2024-03-17T08:17:01;102274.66;;;22.89;47.62
86111;BME280;76766;52.874;11.218;2024-03-17T08:19:26;102280.78;;;23.34;46.33
86111;BME280;76766;52.874;11.218;2024-03-17T08:21:51;102288.19;;;23.76;45.99
86111;BME280;76766;52.874;11.218;2024-03-17T08:24:17;102285.91;;;24.09;44.49
86111;BME280;76766;52.874;11.218;2024-03-17T08:26:42;102278.88;;;24.50;44.11
86111;BME280;76766;52.874;11.218;2024-03-17T08:29:11;102279.09;;;24.78;43.36
86111;BME280;76766;52.874;11.218;2024-03-17T08:31:36;102277.31;;;25.13;42.33
86111;BME280;76766;52.874;11.218;2024-03-17T08:34:02;102276.06;;;25.51;41.90
86111;BME280;76766;52.874;11.218;2024-03-17T08:36:27;102281.50;;;25.85;41.49
86111;BME280;76766;52.874;11.218;2024-03-17T08:38:53;102285.00;;;26.09;40.93
86111;BME280;76766;52.874;11.218;2024-03-17T08:41:20;102282.06;;;26.22;40.77
86111;BME280;76766;52.874;11.218;2024-03-17T08:43:45;102287.09;;;26.42;40.40
86111;BME280;76766;52.874;11.218;2024-03-17T08:46:11;102271.75;;;26.57;39.14
86111;BME280;76766;52.874;11.218;2024-03-17T08:48:39;102268.88;;;26.92;38.85
86111;BME280;76766;52.874;11.218;2024-03-17T08:51:06;102264.00;;;27.44;38.33
86111;BME280;76766;52.874;11.218;2024-03-17T08:53:32;102272.06;;;27.72;37.82
86111;BME280;76766;52.874;11.218;2024-03-17T08:55:58;102262.94;;;27.67;37.72
86111;BME280;76766;52.874;11.218;2024-03-17T08:58:24;102267.94;;;27.70;37.05
86111;BME280;76766;52.874;11.218;2024-03-17T09:00:50;102255.44;;;27.79;37.25
86111;BME280;76766;52.874;11.218;2024-03-17T09:03:16;102264.63;;;27.90;37.37
86111;BME280;76766;52.874;11.218;2024-03-17T09:05:45;102272.06;;;27.89;37.49
86111;BME280;76766;52.874;11.218;2024-03-17T09:08:21;102265.41;;;27.85;37.67
86111;BME280;76766;52.874;11.218;2024-03-17T09:10:49;102263.22;;;28.04;37.44
86111;BME280;76766;52.874;11.218;2024-03-17T09:13:16;102274.69;;;28.01;37.37
86111;BME280;76766;52.874;11.218;2024-03-17T09:15:52;102261.38;;;27.71;37.56
86111;BME280;76766;52.874;11.218;2024-03-17T09:18:18;102259.28;;;26.78;39.34
86111;BME280;76766;52.874;11.218;2024-03-17T09:20:43;102258.34;;;27.34;37.69
86111;BME280;76766;52.874;11.218;2024-03-17T09:23:09;102258.28;;;27.67;37.22
86111;BME280;76766;52.874;11.218;2024-03-17T09:25:34;102253.47;;;26.75;38.28
86111;BME280;76766;52.874;11.218;2024-03-17T09:28:00;102254.19;;;26.25;40.01
86111;BME280;76766;52.874;11.218;2024-03-17T09:30:25;102266.31;;;27.19;37.67
86111;BME280;76766;52.874;11.218;2024-03-17T09:32:51;102260.03;;;27.95;36.76
86111;BME280;76766;52.874;11.218;2024-03-17T09:35:16;102267.94;;;26.87;38.31
86111;BME280;76766;52.874;11.218;2024-03-17T09:37:41;102253.69;;;27.73;37.40
86111;BME280;76766;52.874;11.218;2024-03-17T09:40:13;102261.81;;;26.80;38.91
86111;BME280;76766;52.874;11.218;2024-03-17T09:42:41;102266.75;;;25.75;40.51
86111;BME280;76766;52.874;11.218;2024-03-17T09:45:06;102264.97;;;25.22;42.03
86111;BME280;76766;52.874;11.218;2024-03-17T09:47:32;102269.06;;;27.02;38.44
86111;BME280;76766;52.874;11.218;2024-03-17T09:49:57;102266.50;;;26.39;39.70
86111;BME280;76766;52.874;11.218;2024-03-17T09:52:26;102264.28;;;26.81;39.00
86111;BME280;76766;52.874;11.218;2024-03-17T09:54:55;102265.31;;;26.35;39.58
86111;BME280;76766;52.874;11.218;2024-03-17T09:57:23;102282.06;;;25.06;41.64
86111;BME280;76766;52.874;11.218;2024-03-17T09:59:53;102268.91;;;24.44;43.04
86111;BME280;76766;52.874;11.218;2024-03-17T10:02:19;102275.41;;;25.02;42.18
86111;BME280;76766;52.874;11.218;2024-03-17T10:04:45;102270.69;;;25.32;41.61
86111;BME280;76766;52.874;11.218;2024-03-17T10:07:11;102277.16;;;24.67;42.75
86111;BME280;76766;52.874;11.218;2024-03-17T10:09:36;102273.06;;;24.28;43.64
86111;BME280;76766;52.874;11.218;2024-03-17T10:12:02;102278.66;;;24.21;43.69
86111;BME280;76766;52.874;11.218;2024-03-17T10:14:28;102273.59;;;23.82;44.50
86111;BME280;76766;52.874;11.218;2024-03-17T10:16:53;102271.34;;;23.61;45.21
86111;BME280;76766;52.874;11.218;2024-03-17T10:19:23;102275.56;;;23.57;45.16
86111;BME280;76766;52.874;11.218;2024-03-17T10:21:49;102265.56;;;23.69;44.96
86111;BME280;76766;52.874;11.218;2024-03-17T10:24:22;102277.88;;;23.78;44.66
86111;BME280;76766;52.874;11.218;2024-03-17T10:26:57;102269.00;;;23.64;45.18
86111;BME280;76766;52.874;11.218;2024-03-17T10:29:30;102270.47;;;23.42;45.56
86111;BME280;76766;52.874;11.218;2024-03-17T10:32:04;102270.41;;;23.24;45.83
86111;BME280;76766;52.874;11.218;2024-03-17T10:34:30;102277.47;;;23.07;46.33
86111;BME280;76766;52.874;11.218;2024-03-17T10:37:16;102268.72;;;22.98;46.48
86111;BME280;76766;52.874;11.218;2024-03-17T10:39:45;102280.50;;;22.92;46.80
86111;BME280;76766;52.874;11.218;2024-03-17T10:42:12;102275.78;;;23.06;46.75
86111;BME280;76766;52.874;11.218;2024-03-17T10:44:42;102272.56;;;23.15;46.54
86111;BME280;76766;52.874;11.218;2024-03-17T10:47:20;102264.13;;;23.23;46.06
86111;BME280;76766;52.874;11.218;2024-03-17T10:49:46;102269.13;;;23.26;46.12
86111;BME280;76766;52.874;11.218;2024-03-17T10:52:18;102265.72;;;23.31;46.04
86111;BME280;76766;52.874;11.218;2024-03-17T10:54:48;102264.22;;;23.35;46.02
86111;BME280;76766;52.874;11.218;2024-03-17T11:00:03;102263.06;;;23.24;46.19
86111;BME280;76766;52.874;11.218;2024-03-17T11:02:31;102258.25;;;23.20;46.41
86111;BME280;76766;52.874;11.218;2024-03-17T11:07:51;102270.44;;;23.17;46.50
86111;BME280;76766;52.874;11.218;2024-03-17T11:10:25;102269.22;;;23.13;46.61
86111;BME280;76766;52.874;11.218;2024-03-17T11:12:54;102261.13;;;23.07;46.66
86111;BME280;76766;52.874;11.218;2024-03-17T11:20:34;102267.59;;;23.31;46.09
86111;BME280;76766;52.874;11.218;2024-03-17T11:23:01;102267.44;;;23.25;46.25
86111;BME280;76766;52.874;11.218;2024-03-17T11:46:38;102260.91;;;23.02;46.81
86111;BME280;76766;52.874;11.218;2024-03-17T11:49:04;102257.75;;;23.05;46.81
86111;BME280;76766;52.874;11.218;2024-03-17T11:51:29;102242.84;;;23.07;46.18
86111;BME280;76766;52.874;11.218;2024-03-17T11:53:58;102250.72;;;22.97;46.92
86111;BME280;76766;52.874;11.218;2024-03-17T11:56:24;102241.75;;;22.90;47.00
86111;BME280;76766;52.874;11.218;2024-03-17T11:59:04;102242.84;;;22.83;47.24
86111;BME280;76766;52.874;11.218;2024-03-17T12:01:30;102238.13;;;22.72;47.52
86111;BME280;76766;52.874;11.218;2024-03-17T12:03:55;102238.19;;;22.58;43.27
86111;BME280;76766;52.874;11.218;2024-03-17T12:06:22;102235.34;;;22.47;42.79
86111;BME280;76766;52.874;11.218;2024-03-17T12:08:49;102237.72;;;22.30;41.46
86111;BME280;76766;52.874;11.218;2024-03-17T12:11:17;102228.59;;;22.18;39.96
86111;BME280;76766;52.874;11.218;2024-03-17T12:13:43;102230.28;;;22.12;40.58
86111;BME280;76766;52.874;11.218;2024-03-17T12:16:12;102232.38;;;22.10;41.27
86111;BME280;76766;52.874;11.218;2024-03-17T12:18:38;102235.50;;;22.07;39.82
86111;BME280;76766;52.874;11.218;2024-03-17T12:21:12;102236.38;;;22.01;42.73
86111;BME280;76766;52.874;11.218;2024-03-17T12:23:39;102233.47;;;21.96;45.02
86111;BME280;76766;52.874;11.218;2024-03-17T12:26:15;102236.81;;;21.98;46.02
86111;BME280;76766;52.874;11.218;2024-03-17T12:28:46;102226.38;;;21.95;46.83
86111;BME280;76766;52.874;11.218;2024-03-17T12:31:11;102220.75;;;21.90;46.65
86111;BME280;76766;52.874;11.218;2024-03-17T12:33:37;102219.91;;;21.90;46.95
86111;BME280;76766;52.874;11.218;2024-03-17T12:36:09;102222.63;;;21.90;47.05
86111;BME280;76766;52.874;11.218;2024-03-17T12:38:37;102220.28;;;21.87;47.27
86111;BME280;76766;52.874;11.218;2024-03-17T12:41:03;102226.38;;;21.82;47.20
86111;BME280;76766;52.874;11.218;2024-03-17T12:43:32;102221.81;;;21.70;47.17
86111;BME280;76766;52.874;11.218;2024-03-17T12:45:57;102212.22;;;21.67;47.53
86111;BME280;76766;52.874;11.218;2024-03-17T12:48:23;102217.66;;;21.67;47.64
86111;BME280;76766;52.874;11.218;2024-03-17T12:50:48;102225.19;;;21.65;47.75
86111;BME280;76766;52.874;11.218;2024-03-17T12:53:16;102220.78;;;21.64;47.83
86111;BME280;76766;52.874;11.218;2024-03-17T12:55:53;102215.78;;;21.61;47.92
86111;BME280;76766;52.874;11.218;2024-03-17T12:58:37;102219.75;;;21.58;48.21
86111;BME280;76766;52.874;11.218;2024-03-17T13:01:21;102210.16;;;21.56;48.48
86111;BME280;76766;52.874;11.218;2024-03-17T13:03:46;102210.81;;;21.51;48.35
86111;BME280;76766;52.874;11.218;2024-03-17T13:06:23;102202.66;;;21.45;48.68
86111;BME280;76766;52.874;11.218;2024-03-17T13:08:51;102199.31;;;21.43;49.06
86111;BME280;76766;52.874;11.218;2024-03-17T13:11:17;102193.47;;;21.39;49.48
86111;BME280;76766;52.874;11.218;2024-03-17T13:13:42;102190.56;;;21.28;47.49
86111;BME280;76766;52.874;11.218;2024-03-17T13:16:09;102193.50;;;21.20;47.36